Finlandia — OJPP — position and weather

sailwx.info

Track history (hours):
 
Tides and Currents Weather Stations Pressure Air Temp Water Temp Dewpoint Dewpoint Depression Visibility Wind Speed Wind Dir Waves Ship Positions

Finlandia

Last reported at 2014-Oct-24 06:33 UTC. Time now 2014-Oct-24 07:02 UTC.
Position N 59°49' E 024°51'.

Length 175 m; draft 7 m.

Type: Ship (hazmat cat A). MMSI: 230628000.

Date/timePositionNaut miles runAvg speedWind from/ knotsBaromVisibWave heightAir tempDewpointWater temp
2014-Oct-24 06:33N 59°49' E 024°51'5 0.3
2014-Oct-23 17:22N 59°45' E 024°47'1822.3
2014-Oct-23 16:33N 59°27' E 024°47'0 0.4
2014-Oct-23 15:29N 59°27' E 024°46'1212.7
2014-Oct-23 14:34N 59°38' E 024°40'1 0.2
2014-Oct-23 09:33N 59°37' E 024°42'7 3.7
2014-Oct-23 07:33N 59°30' E 024°44'9 0.7
2014-Oct-22 17:34N 59°39' E 024°44'1312.7
2014-Oct-22 16:34N 59°27' E 024°46'0 0.0
2014-Oct-22 15:30N 59°27' E 024°46'1112.2
2014-Oct-22 14:33N 59°38' E 024°40'10 2.2
2014-Oct-22 10:06N 59°46' E 024°50'1221.6
2014-Oct-22 09:34N 59°35' E 024°42'8 8.0
2014-Oct-22 08:31N 59°27' E 024°46'4 3.7
2014-Oct-22 07:33N 59°30' E 024°44'16 1.1
2014-Oct-21 17:33N 59°46' E 024°48'1919.0
2014-Oct-21 16:33N 59°27' E 024°46'0 0.0
2014-Oct-21 15:33N 59°27' E 024°46'1010.2
2014-Oct-21 14:33N 59°36' E 024°40'13 3.0
2014-Oct-21 10:18N 59°49' E 024°46'1519.9
2014-Oct-21 09:33N 59°34' E 024°43'7 7.0
2014-Oct-21 08:30N 59°27' E 024°46'3 3.2
2014-Oct-21 07:33N 59°30' E 024°45'1919.1
2014-Oct-21 06:33N 59°49' E 024°49'4 0.3
2014-Oct-20 17:31N 59°45' E 024°48'1818.6
2014-Oct-20 16:33N 59°27' E 024°46'0 0.1
2014-Oct-20 15:32N 59°27' E 024°46'1110.9
2014-Oct-20 14:33N 59°37' E 024°40'14 3.3
2014-Oct-20 10:26N 59°50' E 024°47'1820.7
2014-Oct-20 09:33N 59°32' E 024°44'5 5.3
2014-Oct-20 08:33N 59°27' E 024°46'3 3.4
2014-Oct-20 07:34N 59°30' E 024°45'1918.8
2014-Oct-20 06:34N 59°49' E 024°49'2019.5
2014-Oct-20 05:32N 60°09' E 024°54'23 1.9
2014-Oct-19 17:25N 59°46' E 024°49'1921.4
2014-Oct-19 16:33N 59°27' E 024°47'1 0.6
2014-Oct-19 15:30N 59°27' E 024°46'4 4.5
2014-Oct-19 14:33N 59°31' E 024°44'1918.5
2014-Oct-19 13:33N 59°49' E 024°49'1918.3
2014-Oct-19 12:30N 60°08' E 024°54'3512.0
2014-Oct-19 09:33N 59°34' E 024°43'7 7.0
2014-Oct-19 08:33N 59°27' E 024°46'3 3.0
2014-Oct-19 07:33N 59°30' E 024°45'1918.8
2014-Oct-19 06:33N 59°48' E 024°49'1 0.1
2014-Oct-18 17:33N 59°49' E 024°47'2222.0
2014-Oct-18 16:33N 59°27' E 024°47'1 0.8
2014-Oct-18 15:32N 59°27' E 024°46'1010.4
2014-Oct-18 14:33N 59°36' E 024°40'2 0.4
2014-Oct-18 09:33N 59°35' E 024°42'8 8.1
2014-Oct-18 08:31N 59°27' E 024°46'4 4.5
2014-Oct-18 07:33N 59°31' E 024°44'2120.5
2014-Oct-18 06:32N 59°52' E 024°51'5 0.4
2014-Oct-17 17:28N 59°47' E 024°48'2021.5
2014-Oct-17 16:34N 59°27' E 024°47'1 0.6
2014-Oct-17 15:31N 59°27' E 024°46'1011.0
2014-Oct-17 14:33N 59°37' E 024°40'14 3.3
2014-Oct-17 10:16N 59°50' E 024°48'1420.2
2014-Oct-17 09:33N 59°36' E 024°41'10 9.3
2014-Oct-17 08:29N 59°27' E 024°46'3 3.3
2014-Oct-17 07:33N 59°30' E 024°45'17 1.2
2014-Oct-16 17:33N 59°47' E 024°49'2019.8
2014-Oct-16 16:33N 59°27' E 024°46'0 0.2
2014-Oct-16 15:30N 59°27' E 024°46'1112.0
2014-Oct-16 14:33N 59°38' E 024°40'13 3.0
2014-Oct-16 10:19N 59°50' E 024°47'1620.5
2014-Oct-16 09:33N 59°34' E 024°42'8 7.8
2014-Oct-16 08:32N 59°27' E 024°46'3 3.0
2014-Oct-16 07:34N 59°30' E 024°45'2019.6
2014-Oct-16 06:33N 59°49' E 024°49'4 0.3
2014-Oct-15 17:33N 59°45' E 024°48'1818.3
2014-Oct-15 16:33N 59°27' E 024°46'0 0.0
2014-Oct-15 15:33N 59°27' E 024°46'1111.5
2014-Oct-15 14:34N 59°38' E 024°40'9 2.1
2014-Oct-15 10:08N 59°46' E 024°48'1221.2
2014-Oct-15 09:33N 59°34' E 024°42'8 7.7
2014-Oct-15 08:32N 59°27' E 024°46'2 2.4
2014-Oct-15 07:33N 59°29' E 024°45'17 1.2
2014-Oct-14 17:28N 59°46' E 024°49'1921.3
2014-Oct-14 16:34N 59°27' E 024°46'0 0.3
2014-Oct-14 15:32N 59°27' E 024°46'1111.5
2014-Oct-14 14:33N 59°38' E 024°40'2 0.4
2014-Oct-14 09:33N 59°36' E 024°41'9 9.5
2014-Oct-14 08:34N 59°27' E 024°46'3 3.2
2014-Oct-14 07:33N 59°30' E 024°45'  
Track history (hours):
 
Tides and Currents Weather Stations Pressure Air Temp Water Temp Dewpoint Dewpoint Depression Visibility Wind Speed Wind Dir Waves Ship Positions

Finlandia

Last reported at 2014-Oct-24 06:33 UTC. Time now 2014-Oct-24 07:02 UTC.
Position N 59°49' E 024°51'.

Length 175 m; draft 7 m.

Type: Ship (hazmat cat A). MMSI: 230628000.

Date/timePositionNaut miles runAvg speedWind from/ knotsBaromVisibWave heightAir tempDewpointWater temp
2014-Oct-24 06:33N 59°49' E 024°51'5 0.3
2014-Oct-23 17:22N 59°45' E 024°47'1822.3
2014-Oct-23 16:33N 59°27' E 024°47'0 0.4
2014-Oct-23 15:29N 59°27' E 024°46'1212.7
2014-Oct-23 14:34N 59°38' E 024°40'1 0.2
2014-Oct-23 09:33N 59°37' E 024°42'7 3.7
2014-Oct-23 07:33N 59°30' E 024°44'9 0.7
2014-Oct-22 17:34N 59°39' E 024°44'1312.7
2014-Oct-22 16:34N 59°27' E 024°46'0 0.0
2014-Oct-22 15:30N 59°27' E 024°46'1112.2
2014-Oct-22 14:33N 59°38' E 024°40'10 2.2
2014-Oct-22 10:06N 59°46' E 024°50'1221.6
2014-Oct-22 09:34N 59°35' E 024°42'8 8.0
2014-Oct-22 08:31N 59°27' E 024°46'4 3.7
2014-Oct-22 07:33N 59°30' E 024°44'16 1.1
2014-Oct-21 17:33N 59°46' E 024°48'1919.0
2014-Oct-21 16:33N 59°27' E 024°46'0 0.0
2014-Oct-21 15:33N 59°27' E 024°46'1010.2
2014-Oct-21 14:33N 59°36' E 024°40'13 3.0
2014-Oct-21 10:18N 59°49' E 024°46'1519.9
2014-Oct-21 09:33N 59°34' E 024°43'7 7.0
2014-Oct-21 08:30N 59°27' E 024°46'3 3.2
2014-Oct-21 07:33N 59°30' E 024°45'1919.1
2014-Oct-21 06:33N 59°49' E 024°49'4 0.3
2014-Oct-20 17:31N 59°45' E 024°48'1818.6
2014-Oct-20 16:33N 59°27' E 024°46'0 0.1
2014-Oct-20 15:32N 59°27' E 024°46'1110.9
2014-Oct-20 14:33N 59°37' E 024°40'14 3.3
2014-Oct-20 10:26N 59°50' E 024°47'1820.7
2014-Oct-20 09:33N 59°32' E 024°44'5 5.3
2014-Oct-20 08:33N 59°27' E 024°46'3 3.4
2014-Oct-20 07:34N 59°30' E 024°45'1918.8
2014-Oct-20 06:34N 59°49' E 024°49'2019.5
2014-Oct-20 05:32N 60°09' E 024°54'23 1.9
2014-Oct-19 17:25N 59°46' E 024°49'1921.4
2014-Oct-19 16:33N 59°27' E 024°47'1 0.6
2014-Oct-19 15:30N 59°27' E 024°46'4 4.5
2014-Oct-19 14:33N 59°31' E 024°44'1918.5
2014-Oct-19 13:33N 59°49' E 024°49'1918.3
2014-Oct-19 12:30N 60°08' E 024°54'3512.0
2014-Oct-19 09:33N 59°34' E 024°43'7 7.0
2014-Oct-19 08:33N 59°27' E 024°46'3 3.0
2014-Oct-19 07:33N 59°30' E 024°45'1918.8
2014-Oct-19 06:33N 59°48' E 024°49'1 0.1
2014-Oct-18 17:33N 59°49' E 024°47'2222.0
2014-Oct-18 16:33N 59°27' E 024°47'1 0.8
2014-Oct-18 15:32N 59°27' E 024°46'1010.4
2014-Oct-18 14:33N 59°36' E 024°40'2 0.4
2014-Oct-18 09:33N 59°35' E 024°42'8 8.1
2014-Oct-18 08:31N 59°27' E 024°46'4 4.5
2014-Oct-18 07:33N 59°31' E 024°44'2120.5
2014-Oct-18 06:32N 59°52' E 024°51'5 0.4
2014-Oct-17 17:28N 59°47' E 024°48'2021.5
2014-Oct-17 16:34N 59°27' E 024°47'1 0.6
2014-Oct-17 15:31N 59°27' E 024°46'1011.0
2014-Oct-17 14:33N 59°37' E 024°40'14 3.3
2014-Oct-17 10:16N 59°50' E 024°48'1420.2
2014-Oct-17 09:33N 59°36' E 024°41'10 9.3
2014-Oct-17 08:29N 59°27' E 024°46'3 3.3
2014-Oct-17 07:33N 59°30' E 024°45'17 1.2
2014-Oct-16 17:33N 59°47' E 024°49'2019.8
2014-Oct-16 16:33N 59°27' E 024°46'0 0.2
2014-Oct-16 15:30N 59°27' E 024°46'1112.0
2014-Oct-16 14:33N 59°38' E 024°40'13 3.0
2014-Oct-16 10:19N 59°50' E 024°47'1620.5
2014-Oct-16 09:33N 59°34' E 024°42'8 7.8
2014-Oct-16 08:32N 59°27' E 024°46'3 3.0
2014-Oct-16 07:34N 59°30' E 024°45'2019.6
2014-Oct-16 06:33N 59°49' E 024°49'4 0.3
2014-Oct-15 17:33N 59°45' E 024°48'1818.3
2014-Oct-15 16:33N 59°27' E 024°46'0 0.0
2014-Oct-15 15:33N 59°27' E 024°46'1111.5
2014-Oct-15 14:34N 59°38' E 024°40'9 2.1
2014-Oct-15 10:08N 59°46' E 024°48'1221.2
2014-Oct-15 09:33N 59°34' E 024°42'8 7.7
2014-Oct-15 08:32N 59°27' E 024°46'2 2.4
2014-Oct-15 07:33N 59°29' E 024°45'17 1.2
2014-Oct-14 17:28N 59°46' E 024°49'1921.3
2014-Oct-14 16:34N 59°27' E 024°46'0 0.3
2014-Oct-14 15:32N 59°27' E 024°46'1111.5
2014-Oct-14 14:33N 59°38' E 024°40'2 0.4
2014-Oct-14 09:33N 59°36' E 024°41'9 9.5
2014-Oct-14 08:34N 59°27' E 024°46'3 3.2
2014-Oct-14 07:33N 59°30' E 024°45'  

Dump ship's entire track history